Time;durP1;ratioP1;P1;durP2;ratioP2;P2;SDS_P1;SDS_P2;PMS_P1;PMS_P2;Temp;Humidity;BMP_temperature;BMP_pressure;BME280_temperature;BME280_humidity;BME280_pressure;Samples;Min_cycle;Max_cycle;Signal;HPM_P1;HPM_P2
2023/05/12 00:00:09;;;;;;;16.92;11.05;;;14.30;99.90;;;;;;4968430;28;20208;-66
2023/05/12 00:02:37;;;;;;;15.02;11.20;;;14.30;99.90;;;;;;4964117;28;20259;-63
2023/05/12 00:05:06;;;;;;;15.35;11.68;;;14.30;99.90;;;;;;4968424;28;20260;-65
2023/05/12 00:07:32;;;;;;;14.57;10.55;;;14.30;99.90;;;;;;4969077;28;20227;-66
2023/05/12 00:09:57;;;;;;;15.50;12.05;;;14.30;99.90;;;;;;4955986;29;20212;-66
2023/05/12 00:12:25;;;;;;;14.52;10.68;;;14.20;99.90;;;;;;4945590;28;20201;-66
2023/05/12 00:14:51;;;;;;;14.70;10.55;;;14.30;99.90;;;;;;4969906;28;20440;-65
2023/05/12 00:17:19;;;;;;;14.45;10.32;;;14.30;99.90;;;;;;4971959;28;20229;-66
2023/05/12 00:19:44;;;;;;;13.23;9.93;;;14.20;99.90;;;;;;4958143;28;20201;-66
2023/05/12 00:22:10;;;;;;;15.20;10.60;;;14.20;99.90;;;;;;4971335;28;20213;-66
2023/05/12 00:24:38;;;;;;;14.07;10.57;;;14.20;99.90;;;;;;4956560;28;20216;-66
2023/05/12 00:27:05;;;;;;;14.45;9.98;;;14.20;99.90;;;;;;4948825;28;20273;-67
2023/05/12 00:29:32;;;;;;;15.02;9.63;;;14.20;99.90;;;;;;4974416;28;20208;-67
2023/05/12 00:32:00;;;;;;;13.57;9.95;;;14.10;99.90;;;;;;4973971;28;20487;-66
2023/05/12 00:34:29;;;;;;;12.77;10.00;;;14.20;99.90;;;;;;4954533;28;20185;-66
2023/05/12 00:36:55;;;;;;;14.05;10.68;;;14.10;99.90;;;;;;4971941;28;20217;-66
2023/05/12 00:39:20;;;;;;;13.23;10.05;;;14.20;99.90;;;;;;4957410;28;20180;-66
2023/05/12 00:41:59;;;;;;;12.85;10.00;;;14.10;99.90;;;;;;4959206;28;20193;-66
2023/05/12 00:44:27;;;;;;;11.38;8.95;;;14.20;99.90;;;;;;4975341;28;20211;-67
2023/05/12 00:46:54;;;;;;;11.32;8.82;;;14.10;99.90;;;;;;4974577;28;20259;-67
2023/05/12 00:49:22;;;;;;;12.32;8.77;;;14.20;99.90;;;;;;4960521;28;20177;-66
2023/05/12 00:51:51;;;;;;;14.70;9.77;;;14.20;99.90;;;;;;4953477;29;20239;-66
2023/05/12 00:54:17;;;;;;;13.38;9.50;;;14.20;99.90;;;;;;4974751;28;20181;-67
2023/05/12 00:56:45;;;;;;;14.68;10.10;;;14.20;99.90;;;;;;4973948;28;20252;-67
2023/05/12 00:59:11;;;;;;;12.95;9.52;;;14.20;99.90;;;;;;4957608;28;20212;-67
2023/05/12 01:01:37;;;;;;;13.38;9.50;;;14.20;99.90;;;;;;4974838;28;20227;-67
2023/05/12 01:04:03;;;;;;;14.38;9.77;;;14.20;99.90;;;;;;4973867;28;20275;-67
2023/05/12 01:06:39;;;;;;;13.95;9.77;;;14.20;99.90;;;;;;4970896;28;20296;-66
2023/05/12 01:09:05;;;;;;;12.73;9.15;;;14.20;99.90;;;;;;4960428;28;20480;-66
2023/05/12 01:11:30;;;;;;;11.82;9.32;;;14.10;99.90;;;;;;4958394;28;20197;-66
2023/05/12 01:13:56;;;;;;;11.13;8.68;;;14.20;99.90;;;;;;4972851;28;20295;-66
2023/05/12 01:16:28;;;;;;;10.63;7.75;;;14.10;99.90;;;;;;4955645;29;20172;-67
2023/05/12 01:18:55;;;;;;;10.07;8.07;;;14.20;99.90;;;;;;4970483;28;20204;-67
2023/05/12 01:21:23;;;;;;;9.60;7.55;;;14.20;99.90;;;;;;4971415;28;20209;-67
2023/05/12 01:23:59;;;;;;;10.23;8.20;;;14.20;99.90;;;;;;4969298;28;20192;-67
2023/05/12 01:26:28;;;;;;;8.70;7.00;;;14.20;99.90;;;;;;4947234;29;20180;-68
2023/05/12 01:28:55;;;;;;;10.82;7.97;;;14.20;99.90;;;;;;4956710;28;20192;-65
2023/05/12 01:31:22;;;;;;;9.15;6.72;;;14.10;99.90;;;;;;4959680;28;20264;-67
2023/05/12 01:33:50;;;;;;;8.35;7.07;;;14.20;99.90;;;;;;4970512;28;20193;-66
2023/05/12 01:36:16;;;;;;;9.45;6.75;;;14.20;99.90;;;;;;4971213;28;20184;-66
2023/05/12 01:38:42;;;;;;;10.25;7.32;;;14.20;99.90;;;;;;4965488;28;20196;-66
2023/05/12 01:41:10;;;;;;;8.48;6.68;;;14.20;99.90;;;;;;4968025;28;20196;-66
2023/05/12 01:43:38;;;;;;;8.13;6.63;;;14.20;99.90;;;;;;4970938;28;20212;-66
2023/05/12 01:46:05;;;;;;;7.65;6.78;;;14.20;99.90;;;;;;4948076;29;20184;-67
2023/05/12 01:48:31;;;;;;;8.02;6.38;;;14.20;99.90;;;;;;4955213;29;20172;-66
2023/05/12 01:51:00;;;;;;;8.27;6.88;;;14.20;99.90;;;;;;4972494;28;20199;-66
2023/05/12 01:53:28;;;;;;;7.93;6.18;;;14.20;99.90;;;;;;4964948;28;20195;-66
2023/05/12 01:55:55;;;;;;;7.38;6.20;;;14.20;99.90;;;;;;4957973;28;20219;-66
2023/05/12 01:58:23;;;;;;;8.05;6.63;;;14.20;99.90;;;;;;4970509;28;20181;-67
2023/05/12 02:00:48;;;;;;;7.88;6.57;;;14.20;99.90;;;;;;4952071;29;20197;-66
2023/05/12 02:03:15;;;;;;;8.90;6.40;;;14.20;99.90;;;;;;4969334;28;20240;-66
2023/05/12 02:05:43;;;;;;;9.15;6.32;;;14.20;99.90;;;;;;4967687;28;20181;-66
2023/05/12 02:08:08;;;;;;;8.65;6.72;;;14.20;99.90;;;;;;4964261;28;20189;-66
2023/05/12 02:10:36;;;;;;;8.38;7.10;;;14.20;99.90;;;;;;4959382;28;20208;-66
2023/05/12 02:13:02;;;;;;;7.82;6.30;;;14.20;99.90;;;;;;4966084;28;20200;-66
2023/05/12 02:15:27;;;;;;;9.90;6.93;;;14.20;99.90;;;;;;4951220;29;20181;-65
2023/05/12 02:17:57;;;;;;;7.63;5.93;;;14.20;99.90;;;;;;4958037;28;20223;-66
2023/05/12 02:20:22;;;;;;;7.07;6.20;;;14.20;99.90;;;;;;4954051;29;20194;-66
2023/05/12 02:22:48;;;;;;;7.32;6.35;;;14.20;99.90;;;;;;4965686;28;20180;-67
2023/05/12 02:25:14;;;;;;;8.18;6.72;;;14.30;99.90;;;;;;4951964;28;20287;-66
2023/05/12 02:27:44;;;;;;;9.35;7.10;;;14.30;99.90;;;;;;4955876;29;20268;-66
2023/05/12 02:30:12;;;;;;;8.70;6.88;;;14.30;99.90;;;;;;4956195;29;20206;-66
2023/05/12 02:32:38;;;;;;;8.20;6.68;;;14.30;99.90;;;;;;4961939;28;20267;-66
2023/05/12 02:35:04;;;;;;;9.82;7.30;;;14.30;99.90;;;;;;4965515;28;20181;-66
2023/05/12 02:37:32;;;;;;;9.02;7.00;;;14.30;99.90;;;;;;4965603;28;20200;-67
2023/05/12 02:39:57;;;;;;;8.68;7.47;;;14.30;99.90;;;;;;4956603;29;20180;-66
2023/05/12 02:42:23;;;;;;;10.15;7.18;;;14.30;99.90;;;;;;4972619;28;20195;-66
2023/05/12 02:44:53;;;;;;;8.55;6.75;;;14.30;99.90;;;;;;4973061;28;20442;-67
2023/05/12 02:47:19;;;;;;;9.82;7.30;;;14.20;99.90;;;;;;4966139;28;20177;-66
2023/05/12 02:49:49;;;;;;;9.10;7.20;;;14.30;99.90;;;;;;4937689;29;20188;-67
2023/05/12 02:52:14;;;;;;;8.57;7.35;;;14.20;99.90;;;;;;4938016;29;20161;-67
2023/05/12 02:54:40;;;;;;;9.27;7.38;;;14.20;99.90;;;;;;4937859;29;20181;-67
2023/05/12 02:57:06;;;;;;;9.85;7.57;;;14.10;99.90;;;;;;4953666;28;20289;-66
2023/05/12 02:59:32;;;;;;;10.18;7.50;;;14.10;99.90;;;;;;4937701;29;20180;-67
2023/05/12 03:02:00;;;;;;;9.07;6.82;;;14.10;99.90;;;;;;4937636;29;20205;-67
2023/05/12 03:04:25;;;;;;;9.02;7.18;;;14.10;99.90;;;;;;4965499;28;20208;-66
2023/05/12 03:06:53;;;;;;;9.77;7.47;;;14.10;99.90;;;;;;4973162;28;20226;-66
2023/05/12 03:09:24;;;;;;;9.48;7.78;;;14.10;99.90;;;;;;4972780;28;20180;-66
2023/05/12 03:11:50;;;;;;;9.18;7.18;;;14.10;99.90;;;;;;4972658;28;20204;-65
2023/05/12 03:14:15;;;;;;;9.32;7.15;;;14.10;99.90;;;;;;4972300;28;20181;-66
2023/05/12 03:16:43;;;;;;;9.73;7.18;;;14.10;99.90;;;;;;4955541;28;20431;-66
2023/05/12 03:19:09;;;;;;;10.60;7.88;;;14.10;99.90;;;;;;4956637;28;20184;-66
2023/05/12 03:21:36;;;;;;;9.85;7.32;;;14.10;99.90;;;;;;4964116;28;20229;-66
2023/05/12 03:24:02;;;;;;;9.68;7.50;;;14.00;99.90;;;;;;4953174;29;20177;-66
2023/05/12 03:26:30;;;;;;;10.05;7.05;;;14.00;99.90;;;;;;4953751;29;20271;-66
2023/05/12 03:28:56;;;;;;;9.55;8.07;;;14.10;99.90;;;;;;4964284;28;20188;-66
2023/05/12 03:31:21;;;;;;;9.30;6.80;;;14.10;99.90;;;;;;4949977;29;20185;-66
2023/05/12 03:33:49;;;;;;;9.05;7.10;;;14.10;99.90;;;;;;4972365;28;20177;-67
2023/05/12 03:36:17;;;;;;;8.02;6.28;;;14.10;99.90;;;;;;4967619;28;20259;-67
2023/05/12 03:38:45;;;;;;;7.45;5.65;;;14.10;99.90;;;;;;4947045;29;20488;-66
2023/05/12 03:41:11;;;;;;;9.48;6.63;;;14.10;99.90;;;;;;4966607;28;20204;-66
2023/05/12 03:43:37;;;;;;;6.38;5.28;;;14.10;99.90;;;;;;4965323;28;20196;-66
2023/05/12 03:46:02;;;;;;;7.78;5.90;;;14.10;99.90;;;;;;4949504;29;20307;-67
2023/05/12 03:48:30;;;;;;;7.82;5.38;;;14.10;99.90;;;;;;4953734;28;20276;-67
2023/05/12 03:50:56;;;;;;;7.35;5.47;;;14.10;99.90;;;;;;4965141;28;20212;-67
2023/05/12 03:53:24;;;;;;;8.13;5.72;;;14.10;99.90;;;;;;4948057;29;20186;-67
2023/05/12 03:55:54;;;;;;;12.68;9.73;;;14.10;99.90;;;;;;4968552;28;20185;-68
2023/05/12 03:58:22;;;;;;;7.78;6.13;;;14.10;99.90;;;;;;4942075;29;20208;-69
2023/05/12 04:00:49;;;;;;;8.75;5.95;;;14.10;99.90;;;;;;4946403;29;20201;-66
2023/05/12 04:03:14;;;;;;;7.85;5.93;;;14.20;99.90;;;;;;4945684;28;20224;-67
2023/05/12 04:05:43;;;;;;;7.18;5.28;;;14.20;99.90;;;;;;4969947;28;20173;-67
2023/05/12 04:08:11;;;;;;;6.38;5.50;;;14.20;99.90;;;;;;4953797;28;20272;-66
2023/05/12 04:10:43;;;;;;;6.90;5.55;;;14.20;99.90;;;;;;4960106;28;20220;-66
2023/05/12 04:13:11;;;;;;;6.72;5.30;;;14.20;99.90;;;;;;4970294;28;20186;-66
2023/05/12 04:15:44;;;;;;;6.50;5.03;;;14.20;99.90;;;;;;4970578;28;20300;-66
2023/05/12 04:18:09;;;;;;;5.13;4.03;;;14.20;99.90;;;;;;4968532;28;20213;-67
2023/05/12 04:20:37;;;;;;;5.00;4.30;;;14.20;99.90;;;;;;4970407;28;20247;-66
2023/05/12 04:23:05;;;;;;;37.00;27.75;;;14.20;99.90;;;;;;4960697;28;20184;-66
2023/05/12 04:25:31;;;;;;;11.68;10.40;;;14.20;99.90;;;;;;4954076;28;20192;-67
2023/05/12 04:27:57;;;;;;;8.35;7.05;;;14.20;99.90;;;;;;4972431;28;20177;-67
2023/05/12 04:30:24;;;;;;;6.75;5.10;;;14.20;99.90;;;;;;4971866;28;20221;-67
2023/05/12 04:32:52;;;;;;;5.53;4.40;;;14.20;99.90;;;;;;4954798;29;20181;-66
2023/05/12 04:35:18;;;;;;;4.45;3.70;;;14.20;99.90;;;;;;4971631;28;20224;-67
2023/05/12 04:37:43;;;;;;;3.60;3.10;;;14.20;99.90;;;;;;4975388;28;20237;-66
2023/05/12 04:40:11;;;;;;;3.80;2.92;;;14.20;99.90;;;;;;4959100;29;20207;-66
2023/05/12 04:42:37;;;;;;;2.65;2.38;;;14.20;99.90;;;;;;4959066;29;20177;-66
2023/05/12 04:45:06;;;;;;;2.65;2.33;;;14.20;99.90;;;;;;4958920;28;20297;-66
2023/05/12 04:47:31;;;;;;;2.65;2.38;;;14.20;99.90;;;;;;4952642;28;20177;-66
2023/05/12 04:49:57;;;;;;;2.67;2.47;;;14.20;99.90;;;;;;4974988;28;20249;-67
2023/05/12 04:52:23;;;;;;;3.15;2.17;;;14.20;99.90;;;;;;4974077;28;20200;-67
2023/05/12 04:54:49;;;;;;;2.75;2.15;;;14.20;99.90;;;;;;4974946;28;20188;-66
2023/05/12 04:57:15;;;;;;;3.38;2.05;;;14.20;99.90;;;;;;4974955;28;20179;-66
2023/05/12 04:59:43;;;;;;;2.13;1.88;;;14.20;99.90;;;;;;4974387;28;20181;-66
2023/05/12 05:02:10;;;;;;;2.08;1.85;;;14.20;99.90;;;;;;4963552;28;20206;-66
2023/05/12 05:04:36;;;;;;;1.95;1.70;;;14.30;99.90;;;;;;4959598;28;20182;-67
2023/05/12 05:07:02;;;;;;;1.48;1.33;;;14.30;99.90;;;;;;4969522;28;20194;-66
2023/05/12 05:09:28;;;;;;;1.42;1.27;;;14.30;99.90;;;;;;4968968;28;20272;-66
2023/05/12 05:11:53;;;;;;;1.55;1.42;;;14.20;99.90;;;;;;4957652;28;20274;-66
2023/05/12 05:14:19;;;;;;;1.85;1.45;;;14.30;99.90;;;;;;4962141;28;20557;-66
2023/05/12 05:16:45;;;;;;;1.50;1.40;;;14.30;99.90;;;;;;4953573;28;20192;-66
2023/05/12 05:19:12;;;;;;;2.03;1.80;;;14.30;99.90;;;;;;4958139;28;20185;-66
2023/05/12 05:21:38;;;;;;;1.45;1.35;;;14.30;99.90;;;;;;4960367;28;20209;-66
2023/05/12 05:24:07;;;;;;;1.95;1.60;;;14.30;99.90;;;;;;4958271;28;20180;-66
2023/05/12 05:26:33;;;;;;;3.08;1.77;;;14.30;99.90;;;;;;4965776;28;20196;-66
2023/05/12 05:28:58;;;;;;;2.10;1.65;;;14.30;99.90;;;;;;4952338;29;20192;-67
2023/05/12 05:31:24;;;;;;;2.53;1.77;;;14.30;99.90;;;;;;4953957;29;20188;-66
2023/05/12 05:33:50;;;;;;;2.08;1.88;;;14.30;99.90;;;;;;4958913;28;20196;-66
2023/05/12 05:36:16;;;;;;;2.20;2.00;;;14.30;99.90;;;;;;4951137;29;20181;-66
2023/05/12 05:38:41;;;;;;;2.28;2.00;;;14.30;99.90;;;;;;4952860;29;20182;-67
2023/05/12 05:41:10;;;;;;;4.10;1.90;;;14.30;99.90;;;;;;4954951;29;20283;-67
2023/05/12 05:43:39;;;;;;;2.47;2.00;;;14.30;99.90;;;;;;4953054;28;20248;-67
2023/05/12 05:46:05;;;;;;;2.03;1.83;;;14.30;99.90;;;;;;4952775;29;20259;-66
2023/05/12 05:48:30;;;;;;;2.55;1.80;;;14.30;99.90;;;;;;4954666;28;20271;-65
2023/05/12 05:50:56;;;;;;;2.53;1.80;;;14.30;99.90;;;;;;4950983;29;20188;-65
2023/05/12 05:53:22;;;;;;;2.05;1.85;;;14.30;99.90;;;;;;4955249;28;20215;-65
2023/05/12 05:55:47;;;;;;;3.05;1.98;;;14.30;99.90;;;;;;4955269;28;20248;-66
2023/05/12 05:58:16;;;;;;;2.30;2.00;;;14.30;99.90;;;;;;4949721;28;20181;-65
2023/05/12 06:00:42;;;;;;;2.03;1.83;;;14.30;99.90;;;;;;4956841;28;20303;-67
2023/05/12 06:03:08;;;;;;;2.65;2.45;;;14.30;99.90;;;;;;4952853;29;20185;-67
2023/05/12 06:05:34;;;;;;;2.47;2.28;;;14.30;99.90;;;;;;4970791;28;20181;-66
2023/05/12 06:08:04;;;;;;;2.40;2.17;;;14.30;99.90;;;;;;4970517;28;20191;-68
2023/05/12 06:10:32;;;;;;;2.28;2.05;;;14.30;99.90;;;;;;4970113;28;20248;-68
2023/05/12 06:12:57;;;;;;;2.65;2.05;;;14.40;99.90;;;;;;4970272;28;20177;-68
2023/05/12 06:15:23;;;;;;;2.30;1.90;;;14.40;99.90;;;;;;4951338;28;20231;-66
2023/05/12 06:17:49;;;;;;;1.98;1.83;;;14.40;99.90;;;;;;4966710;28;20201;-66
2023/05/12 06:20:14;;;;;;;2.00;1.80;;;14.40;99.90;;;;;;4957731;28;20200;-66
2023/05/12 06:22:48;;;;;;;1.95;1.75;;;14.40;99.90;;;;;;4964327;28;20180;-68
2023/05/12 06:25:16;;;;;;;2.63;1.77;;;14.50;99.90;;;;;;4968650;28;20187;-67
2023/05/12 06:27:41;;;;;;;1.70;1.60;;;14.50;99.90;;;;;;4967006;28;20203;-68
2023/05/12 06:30:08;;;;;;;2.25;1.85;;;14.50;99.90;;;;;;4973561;28;20177;-66
2023/05/12 06:32:34;;;;;;;2.55;1.83;;;14.50;99.90;;;;;;4974165;28;20230;-67
2023/05/12 06:35:02;;;;;;;1.60;1.50;;;14.60;99.90;;;;;;4973535;28;20184;-66
2023/05/12 06:37:28;;;;;;;1.90;1.70;;;14.60;99.90;;;;;;4973400;28;20208;-67
2023/05/12 06:39:54;;;;;;;2.00;1.80;;;14.60;99.90;;;;;;4972972;28;20223;-67
2023/05/12 06:42:19;;;;;;;1.83;1.60;;;14.60;99.90;;;;;;4973384;28;20215;-65
2023/05/12 06:44:45;;;;;;;2.45;1.52;;;14.70;99.90;;;;;;4969899;28;20220;-66
2023/05/12 06:47:11;;;;;;;1.50;1.38;;;14.70;99.90;;;;;;4937220;29;20238;-66
2023/05/12 06:49:37;;;;;;;1.38;1.27;;;14.70;99.90;;;;;;4937851;29;20179;-66
2023/05/12 06:52:04;;;;;;;1.63;1.30;;;14.70;99.90;;;;;;4937623;29;20178;-66
2023/05/12 06:54:31;;;;;;;1.60;1.33;;;14.80;99.90;;;;;;4937527;29;20199;-67
2023/05/12 06:56:57;;;;;;;1.38;1.25;;;14.80;99.90;;;;;;4937510;29;20181;-67
2023/05/12 06:59:23;;;;;;;1.27;1.17;;;14.80;99.90;;;;;;4937890;29;20271;-66
2023/05/12 07:01:48;;;;;;;3.50;1.10;;;14.80;99.90;;;;;;4949415;29;20236;-66
2023/05/12 07:04:16;;;;;;;1.00;0.90;;;14.90;99.90;;;;;;4937537;29;20213;-66
2023/05/12 07:06:42;;;;;;;1.45;1.20;;;15.00;99.90;;;;;;4937715;29;20231;-66
2023/05/12 07:09:07;;;;;;;1.85;1.02;;;15.00;99.90;;;;;;4949887;29;20271;-66
2023/05/12 07:11:36;;;;;;;1.55;1.05;;;15.10;99.90;;;;;;4972741;28;20172;-67
2023/05/12 07:14:01;;;;;;;1.08;0.98;;;15.10;99.90;;;;;;4972484;28;20176;-67
2023/05/12 07:16:29;;;;;;;0.88;0.85;;;15.20;99.90;;;;;;4968410;28;20312;-66
2023/05/12 07:18:55;;;;;;;1.50;1.27;;;15.30;99.90;;;;;;4958216;28;20233;-65
2023/05/12 07:21:20;;;;;;;1.48;1.25;;;15.40;99.90;;;;;;4957815;28;20208;-66
2023/05/12 07:23:46;;;;;;;2.45;1.38;;;15.40;99.90;;;;;;4962248;28;20170;-65
2023/05/12 07:26:15;;;;;;;1.58;1.40;;;15.50;99.90;;;;;;4946188;29;20177;-66
2023/05/12 07:28:43;;;;;;;2.33;1.45;;;15.50;99.90;;;;;;4967277;28;20208;-67
2023/05/12 07:31:09;;;;;;;1.35;1.25;;;15.60;99.90;;;;;;4955367;28;20180;-66
2023/05/12 07:33:35;;;;;;;1.90;1.70;;;15.70;99.90;;;;;;4954369;28;20208;-67
2023/05/12 07:36:01;;;;;;;2.10;1.90;;;15.70;99.90;;;;;;4953427;28;20216;-66
2023/05/12 07:38:27;;;;;;;3.00;2.30;;;15.80;99.90;;;;;;4953723;28;20173;-66
2023/05/12 07:40:53;;;;;;;2.53;2.33;;;15.90;99.90;;;;;;4965877;28;20215;-66
2023/05/12 07:43:19;;;;;;;3.28;2.47;;;15.90;99.90;;;;;;4952386;28;20196;-66
2023/05/12 07:45:45;;;;;;;2.65;2.30;;;16.00;99.90;;;;;;4960080;28;20176;-66
2023/05/12 07:48:11;;;;;;;2.42;2.22;;;16.00;99.90;;;;;;4952675;29;20185;-67
2023/05/12 07:50:37;;;;;;;2.80;2.38;;;16.10;99.90;;;;;;4969619;28;20276;-67
2023/05/12 07:53:06;;;;;;;2.20;2.00;;;16.20;99.90;;;;;;4954745;28;20283;-66
2023/05/12 07:55:32;;;;;;;2.13;1.90;;;16.20;99.90;;;;;;4971428;28;20219;-67
2023/05/12 07:57:58;;;;;;;2.35;2.15;;;16.20;99.90;;;;;;4950963;29;20369;-66
2023/05/12 08:00:26;;;;;;;2.50;2.30;;;16.30;99.90;;;;;;4968758;28;20201;-68
2023/05/12 08:02:54;;;;;;;2.10;1.90;;;16.30;99.90;;;;;;4958754;28;20232;-66
2023/05/12 08:05:20;;;;;;;3.25;2.00;;;16.40;99.90;;;;;;4970376;28;20191;-65
2023/05/12 08:07:47;;;;;;;2.38;2.17;;;16.40;99.90;;;;;;4967469;28;20200;-66
2023/05/12 08:10:13;;;;;;;3.88;2.08;;;16.40;99.90;;;;;;4969961;28;20184;-65
2023/05/12 08:12:42;;;;;;;4.70;2.35;;;16.50;99.90;;;;;;4955128;29;20181;-65
2023/05/12 08:15:08;;;;;;;3.13;2.15;;;16.50;99.90;;;;;;4969306;28;20268;-66
2023/05/12 08:17:38;;;;;;;2.35;2.10;;;16.60;99.90;;;;;;4955254;28;20228;-65
2023/05/12 08:20:07;;;;;;;2.20;2.00;;;16.60;99.90;;;;;;4970792;28;20307;-66
2023/05/12 08:22:33;;;;;;;2.13;1.92;;;16.70;99.90;;;;;;4961439;28;20184;-66
2023/05/12 08:24:59;;;;;;;2.40;1.90;;;16.70;99.90;;;;;;4957018;28;20196;-65
2023/05/12 08:27:28;;;;;;;2.67;2.20;;;16.70;99.90;;;;;;4952045;29;20180;-65
2023/05/12 08:29:53;;;;;;;2.22;2.00;;;16.80;99.90;;;;;;4975399;28;20201;-66
2023/05/12 08:32:21;;;;;;;2.20;2.00;;;16.80;99.90;;;;;;4975351;28;20185;-65
2023/05/12 08:34:47;;;;;;;1.80;1.70;;;16.90;99.90;;;;;;4975298;28;20180;-66
2023/05/12 08:37:13;;;;;;;1.95;1.85;;;17.00;99.90;;;;;;4975250;28;20191;-66
2023/05/12 08:39:38;;;;;;;2.00;1.73;;;17.10;99.90;;;;;;4974771;28;20255;-66
2023/05/12 08:42:41;;;;;;;1.70;1.60;;;17.20;99.90;;;;;;4958949;29;20291;-66
2023/05/12 08:45:08;;;;;;;2.03;1.80;;;17.20;99.90;;;;;;4964234;28;20195;-65
2023/05/12 08:47:35;;;;;;;2.13;1.75;;;17.30;99.90;;;;;;4974858;28;20169;-67
2023/05/12 08:50:04;;;;;;;1.65;1.55;;;17.40;99.90;;;;;;4975336;28;20208;-67
2023/05/12 08:52:34;;;;;;;1.77;1.67;;;17.50;99.90;;;;;;4975264;28;20177;-66
2023/05/12 08:55:03;;;;;;;1.77;1.63;;;17.50;99.90;;;;;;4974798;28;20184;-67
2023/05/12 08:57:30;;;;;;;2.38;1.60;;;17.60;99.90;;;;;;4975000;28;20177;-67
2023/05/12 08:59:58;;;;;;;2.05;1.60;;;17.70;99.90;;;;;;4957525;29;20251;-67
2023/05/12 09:02:23;;;;;;;3.35;1.98;;;17.80;99.90;;;;;;4971935;28;20204;-66
2023/05/12 09:04:53;;;;;;;2.00;1.70;;;17.80;99.90;;;;;;4956563;28;20252;-67
2023/05/12 09:07:21;;;;;;;1.63;1.52;;;17.90;99.90;;;;;;4963679;28;20267;-67
2023/05/12 09:09:55;;;;;;;1.98;1.58;;;18.00;99.90;;;;;;4970620;28;20192;-67
2023/05/12 09:12:25;;;;;;;1.70;1.60;;;18.00;99.90;;;;;;4967345;28;20180;-68
2023/05/12 09:15:16;;;;;;;1.73;1.63;;;18.00;99.90;;;;;;4972494;28;20192;-67
2023/05/12 09:17:46;;;;;;;1.60;1.50;;;18.00;99.90;;;;;;4966407;28;20193;-67
2023/05/12 09:20:12;;;;;;;1.30;1.20;;;18.10;99.90;;;;;;4968331;28;20287;-68
2023/05/12 09:22:38;;;;;;;1.80;1.48;;;18.10;99.90;;;;;;4956367;28;20181;-67
2023/05/12 09:25:20;;;;;;;1.73;1.60;;;18.10;99.90;;;;;;4967497;28;20181;-68
2023/05/12 09:27:48;;;;;;;1.90;1.70;;;18.20;99.90;;;;;;4954114;29;20200;-68
2023/05/12 09:30:14;;;;;;;2.08;1.88;;;18.30;99.90;;;;;;4971639;28;20181;-68
2023/05/12 09:32:40;;;;;;;3.25;2.00;;;18.30;99.90;;;;;;4956827;28;20204;-67
2023/05/12 09:35:11;;;;;;;1.60;1.50;;;18.50;99.90;;;;;;4954091;28;20201;-67
2023/05/12 09:37:40;;;;;;;1.80;1.70;;;18.60;99.90;;;;;;4950679;28;20177;-67
2023/05/12 09:40:07;;;;;;;2.28;1.80;;;18.60;99.90;;;;;;4952826;29;20244;-68
2023/05/12 09:42:36;;;;;;;2.47;1.65;;;18.80;99.90;;;;;;4954643;28;20288;-68
2023/05/12 09:45:10;;;;;;;2.00;1.80;;;18.90;99.90;;;;;;4954552;28;20233;-67
2023/05/12 09:47:37;;;;;;;2.28;1.83;;;19.00;99.90;;;;;;4966926;28;20177;-67
2023/05/12 09:50:05;;;;;;;2.10;1.88;;;19.10;99.90;;;;;;4955744;28;20299;-67
2023/05/12 09:52:37;;;;;;;2.38;2.10;;;19.20;99.90;;;;;;4952736;28;20244;-67
2023/05/12 09:55:10;;;;;;;2.20;2.00;;;19.30;99.90;;;;;;4954266;29;20180;-68
2023/05/12 09:57:42;;;;;;;2.03;1.83;;;19.40;99.90;;;;;;4966441;28;20204;-67
2023/05/12 10:00:10;;;;;;;2.10;1.90;;;19.60;99.90;;;;;;4972413;28;20183;-67
2023/05/12 10:02:41;;;;;;;2.22;1.90;;;19.60;99.90;;;;;;4954921;28;20283;-67
2023/05/12 10:05:17;;;;;;;2.28;2.08;;;19.60;99.90;;;;;;4969604;28;20271;-67
2023/05/12 10:07:55;;;;;;;3.78;2.10;;;19.70;99.90;;;;;;4966815;28;20187;-66
2023/05/12 10:10:26;;;;;;;2.65;2.20;;;19.70;99.90;;;;;;4969522;28;20195;-67
2023/05/12 10:12:52;;;;;;;2.83;2.10;;;19.70;99.90;;;;;;4967458;28;20224;-67
2023/05/12 10:15:19;;;;;;;2.42;2.22;;;19.70;99.90;;;;;;4968606;28;20277;-67
2023/05/12 10:17:49;;;;;;;2.42;2.03;;;19.70;99.90;;;;;;4968129;28;20280;-67
2023/05/12 10:20:17;;;;;;;2.75;1.85;;;19.70;99.90;;;;;;4971998;28;20274;-69
2023/05/12 10:22:44;;;;;;;2.80;1.92;;;19.70;99.90;;;;;;4966694;28;20185;-68
2023/05/12 10:25:11;;;;;;;2.08;1.88;;;19.70;99.90;;;;;;4951768;28;20182;-68
2023/05/12 10:27:37;;;;;;;2.85;2.15;;;19.70;99.90;;;;;;4966237;28;20283;-68
2023/05/12 10:30:06;;;;;;;2.38;2.03;;;19.70;99.90;;;;;;4973427;28;20208;-66
2023/05/12 10:32:37;;;;;;;2.83;2.22;;;19.80;99.90;;;;;;4972865;28;20169;-66
2023/05/12 10:35:10;;;;;;;2.53;2.13;;;19.80;99.90;;;;;;4973165;28;20224;-67
2023/05/12 10:37:36;;;;;;;2.35;2.15;;;19.80;99.90;;;;;;4973212;28;20195;-67
2023/05/12 10:40:03;;;;;;;2.75;1.98;;;19.80;99.90;;;;;;4956915;29;20201;-66
2023/05/12 10:42:40;;;;;;;2.20;2.00;;;19.90;99.90;;;;;;4971625;28;20208;-67
2023/05/12 10:45:19;;;;;;;2.30;2.10;;;19.90;99.90;;;;;;4957809;28;20177;-67
2023/05/12 10:47:45;;;;;;;2.78;2.10;;;19.90;99.90;;;;;;4973053;28;20172;-66
2023/05/12 10:50:15;;;;;;;1.98;1.77;;;19.90;99.90;;;;;;4972864;28;20212;-67
2023/05/12 10:52:52;;;;;;;2.30;2.10;;;19.90;99.90;;;;;;4973037;28;20208;-66
2023/05/12 10:55:30;;;;;;;2.65;1.92;;;20.00;99.90;;;;;;4972580;28;20176;-67
2023/05/12 10:58:08;;;;;;;2.15;1.95;;;20.10;99.90;;;;;;4968113;28;20193;-66
2023/05/12 11:00:49;;;;;;;1.88;1.70;;;20.20;99.90;;;;;;4944683;29;20215;-67
2023/05/12 11:03:16;;;;;;;2.42;1.70;;;20.40;99.90;;;;;;4965135;28;20200;-67
2023/05/12 11:05:45;;;;;;;2.83;2.03;;;20.50;99.90;;;;;;4953163;29;20167;-67
2023/05/12 11:08:13;;;;;;;3.08;2.10;;;20.50;99.90;;;;;;4954878;28;20173;-67
2023/05/12 11:10:45;;;;;;;2.13;1.92;;;20.50;99.90;;;;;;4957763;28;20211;-67
2023/05/12 11:13:10;;;;;;;3.13;2.10;;;20.50;99.90;;;;;;4967425;28;20177;-66
2023/05/12 11:15:36;;;;;;;2.20;1.98;;;20.50;99.90;;;;;;4954945;28;20185;-67
2023/05/12 11:18:04;;;;;;;3.22;1.90;;;20.50;99.90;;;;;;4956416;28;20208;-67
2023/05/12 11:20:30;;;;;;;2.22;2.00;;;20.40;99.90;;;;;;4956213;28;20292;-66
2023/05/12 11:22:58;;;;;;;4.88;2.30;;;20.40;99.90;;;;;;4960150;28;20196;-66
2023/05/12 11:25:28;;;;;;;2.72;2.22;;;20.40;99.90;;;;;;4949783;28;20284;-66
2023/05/12 11:27:58;;;;;;;2.30;2.08;;;20.40;99.90;;;;;;4958614;28;21887;-66
2023/05/12 11:30:24;;;;;;;2.05;1.75;;;20.40;99.90;;;;;;4955801;28;20169;-66
2023/05/12 11:33:00;;;;;;;2.53;2.05;;;20.40;99.90;;;;;;4963643;28;20281;-66
2023/05/12 11:35:29;;;;;;;2.42;2.00;;;20.40;99.90;;;;;;4967737;28;20180;-66
2023/05/12 11:37:55;;;;;;;2.10;1.90;;;20.50;99.90;;;;;;4945737;29;20177;-67
2023/05/12 11:40:24;;;;;;;2.65;1.80;;;20.60;99.90;;;;;;4966385;28;20248;-66
2023/05/12 11:42:51;;;;;;;2.10;1.90;;;20.60;99.90;;;;;;4950712;29;20187;-66
2023/05/12 11:45:21;;;;;;;2.10;1.90;;;20.60;99.90;;;;;;4968198;28;20181;-66
2023/05/12 11:47:47;;;;;;;2.15;1.95;;;20.70;99.90;;;;;;4968428;28;20197;-66
2023/05/12 11:50:21;;;;;;;2.40;2.10;;;20.80;99.90;;;;;;4950175;28;20429;-66
2023/05/12 11:52:46;;;;;;;2.45;2.08;;;20.80;99.90;;;;;;4969146;28;20188;-66
2023/05/12 11:55:22;;;;;;;2.17;1.98;;;20.90;99.90;;;;;;4957095;28;20196;-66
2023/05/12 11:58:00;;;;;;;3.28;2.10;;;21.00;99.90;;;;;;4966895;28;20259;-66
2023/05/12 12:00:27;;;;;;;2.00;1.80;;;21.20;99.90;;;;;;4949104;29;20200;-66
2023/05/12 12:03:11;;;;;;;2.80;2.20;;;21.20;99.90;;;;;;4965361;28;20204;-67
2023/05/12 12:05:37;;;;;;;2.58;2.38;;;21.30;99.90;;;;;;4949636;29;20189;-66
2023/05/12 12:08:12;;;;;;;2.72;1.90;;;21.40;99.90;;;;;;4950428;28;20184;-66
2023/05/12 12:10:48;;;;;;;2.10;1.90;;;21.40;99.90;;;;;;4955078;28;20255;-66
2023/05/12 12:13:21;;;;;;;2.38;2.00;;;21.40;99.90;;;;;;4963876;28;20184;-67
2023/05/12 12:15:52;;;;;;;2.17;1.98;;;21.50;99.90;;;;;;4967035;28;20191;-66
2023/05/12 12:18:18;;;;;;;2.20;2.00;;;21.50;99.90;;;;;;4963754;28;20207;-66
2023/05/12 12:20:44;;;;;;;2.50;2.30;;;21.50;99.90;;;;;;4966767;28;20205;-65
2023/05/12 12:23:12;;;;;;;2.20;2.00;;;21.50;99.90;;;;;;4952344;28;20193;-66
2023/05/12 12:25:38;;;;;;;3.20;2.08;;;21.50;99.90;;;;;;4967398;28;20180;-66
2023/05/12 12:28:04;;;;;;;2.60;2.20;;;21.50;99.90;;;;;;4964877;28;20208;-66
2023/05/12 12:30:32;;;;;;;3.97;2.15;;;21.50;99.90;;;;;;4946457;28;20212;-66
2023/05/12 12:33:00;;;;;;;2.28;2.08;;;21.50;99.90;;;;;;4958364;29;20236;-67
2023/05/12 12:35:26;;;;;;;4.90;2.28;;;21.50;99.90;;;;;;4957941;29;20180;-67
2023/05/12 12:37:51;;;;;;;2.30;2.10;;;21.50;99.90;;;;;;4978569;28;20347;-66
2023/05/12 12:40:18;;;;;;;2.75;1.92;;;21.60;99.90;;;;;;4955495;29;20189;-67
2023/05/12 12:42:46;;;;;;;2.40;2.10;;;21.60;99.90;;;;;;4950744;29;20196;-67
2023/05/12 12:45:12;;;;;;;2.42;2.13;;;21.60;99.90;;;;;;4958673;28;20181;-67
2023/05/12 12:47:38;;;;;;;2.30;2.10;;;21.60;99.90;;;;;;4959475;29;20183;-67